createdAt,value
2019-03-27T00:00:17.654Z,99.99
2019-03-27T00:02:17.665Z,99.99
2019-03-27T00:03:17.704Z,99.99
2019-03-27T00:04:32.359Z,99.99
2019-03-27T00:05:17.729Z,99.99
2019-03-27T00:06:17.727Z,99.99
2019-03-27T00:07:17.766Z,99.99
2019-03-27T00:08:17.755Z,99.99
2019-03-27T00:09:17.776Z,99.99
2019-03-27T00:10:17.799Z,99.99
2019-03-27T00:11:18.795Z,99.99
2019-03-27T00:12:17.834Z,99.99
2019-03-27T00:13:17.840Z,99.99
2019-03-27T00:14:17.860Z,99.99
2019-03-27T00:15:17.863Z,99.99
2019-03-27T00:16:17.649Z,99.99
2019-03-27T00:17:17.894Z,99.99
2019-03-27T00:18:17.930Z,99.99
2019-03-27T00:19:32.593Z,99.99
2019-03-27T00:20:17.945Z,99.99
2019-03-27T00:21:17.958Z,99.99
2019-03-27T00:22:17.969Z,99.99
2019-03-27T00:23:18.004Z,99.99
2019-03-27T00:24:18.000Z,99.99
2019-03-27T00:25:18.029Z,99.99
2019-03-27T00:26:18.050Z,99.99
2019-03-27T00:27:18.149Z,99.99
2019-03-27T00:28:18.078Z,99.99
2019-03-27T00:29:18.088Z,99.99
2019-03-27T00:30:18.112Z,99.99
2019-03-27T00:31:18.105Z,99.99
2019-03-27T00:32:18.135Z,99.99
2019-03-27T00:33:18.149Z,99.99
2019-03-27T00:34:18.167Z,99.99
2019-03-27T00:35:18.185Z,99.99
2019-03-27T00:36:18.184Z,99.99
2019-03-27T00:37:18.209Z,99.99
2019-03-27T00:38:18.212Z,99.99
2019-03-27T00:39:18.294Z,99.99
2019-03-27T00:40:18.242Z,99.99
2019-03-27T00:41:18.274Z,99.99
2019-03-27T00:42:18.275Z,99.99
2019-03-27T00:43:18.396Z,99.99
2019-03-27T00:44:18.303Z,99.99
2019-03-27T00:45:28.888Z,99.99
2019-03-27T00:46:18.097Z,99.99
2019-03-27T00:47:18.353Z,99.99
2019-03-27T00:48:18.382Z,99.99
2019-03-27T00:49:18.134Z,99.99
2019-03-27T00:50:18.411Z,99.99
2019-03-27T00:51:33.073Z,99.99
2019-03-27T00:52:18.441Z,99.99
2019-03-27T00:53:18.445Z,99.99
2019-03-27T00:54:18.478Z,99.99
2019-03-27T00:55:18.470Z,99.99
2019-03-27T00:56:18.485Z,99.99
2019-03-27T00:57:18.521Z,99.99
2019-03-27T00:58:18.532Z,99.99
2019-03-27T00:59:21.653Z,99.99
2019-03-27T01:00:18.548Z,99.99
2019-03-27T01:01:18.573Z,99.99
2019-03-27T01:03:18.598Z,99.99
2019-03-27T01:04:18.607Z,99.99
2019-03-27T01:05:18.643Z,99.99
2019-03-27T01:06:18.654Z,99.99
2019-03-27T01:07:33.316Z,99.99
2019-03-27T01:08:18.687Z,99.99
2019-03-27T01:09:18.684Z,99.99
2019-03-27T01:10:18.705Z,99.99
2019-03-27T01:11:18.722Z,99.99
2019-03-27T01:12:18.744Z,99.99
2019-03-27T01:13:18.760Z,99.99
2019-03-27T01:14:18.764Z,99.99
2019-03-27T01:15:18.777Z,99.99
2019-03-27T01:16:18.789Z,99.99
2019-03-27T01:17:18.824Z,99.99
2019-03-27T01:18:18.820Z,99.99
2019-03-27T01:19:18.848Z,99.99
2019-03-27T01:20:18.866Z,99.99
2019-03-27T01:21:18.868Z,99.99
2019-03-27T01:22:18.899Z,99.99
2019-03-27T01:23:33.562Z,99.99
2019-03-27T01:24:18.917Z,99.99
2019-03-27T01:25:18.927Z,99.99
2019-03-27T01:26:18.942Z,99.99
2019-03-27T01:27:18.973Z,99.99
2019-03-27T01:28:18.975Z,99.99
2019-03-27T01:29:19.009Z,99.99
2019-03-27T01:30:19.004Z,99.99
2019-03-27T01:31:19.033Z,99.99
2019-03-27T01:32:19.034Z,99.99
2019-03-27T01:33:19.047Z,99.99
2019-03-27T01:34:19.079Z,99.99
2019-03-27T01:36:19.108Z,99.99
2019-03-27T01:37:19.114Z,99.99
2019-03-27T01:38:18.884Z,99.99
2019-03-27T01:39:33.800Z,99.99
2019-03-27T01:40:19.169Z,99.99
2019-03-27T01:41:19.214Z,99.99
2019-03-27T01:42:19.185Z,99.99
2019-03-27T01:43:19.215Z,99.99
2019-03-27T01:44:19.212Z,99.99
2019-03-27T01:45:19.252Z,99.99
2019-03-27T01:46:19.243Z,99.99
2019-03-27T01:47:19.277Z,99.99
2019-03-27T01:48:19.276Z,99.99
2019-03-27T01:49:19.290Z,99.99
2019-03-27T01:50:19.303Z,99.99
2019-03-27T01:51:19.345Z,99.99
2019-03-27T01:53:19.366Z,99.99
2019-03-27T01:54:34.027Z,99.99
2019-03-27T01:55:19.396Z,99.99
2019-03-27T01:56:19.392Z,99.99
2019-03-27T01:57:19.411Z,99.99
2019-03-27T01:58:19.443Z,99.99
2019-03-27T01:59:19.444Z,99.99
2019-03-27T02:00:19.498Z,99.99
2019-03-27T02:01:19.469Z,99.99
2019-03-27T02:02:19.503Z,99.99
2019-03-27T02:03:19.500Z,99.99
2019-03-27T02:04:19.525Z,99.99
2019-03-27T02:05:19.532Z,99.99
2019-03-27T02:06:19.560Z,99.99
2019-03-27T02:07:19.578Z,99.99
2019-03-27T02:08:19.575Z,99.99
2019-03-27T02:09:19.602Z,99.99
2019-03-27T02:10:19.602Z,99.99
2019-03-27T02:11:19.635Z,99.99
2019-03-27T02:12:19.637Z,99.99
2019-03-27T02:13:19.664Z,99.99
2019-03-27T02:14:19.667Z,99.99
2019-03-27T02:15:19.680Z,99.99
2019-03-27T02:16:19.711Z,99.99
2019-03-27T02:17:19.726Z,99.99
2019-03-27T02:18:19.727Z,99.99
2019-03-27T02:19:19.749Z,99.99
2019-03-27T02:20:19.753Z,99.99
2019-03-27T02:21:19.788Z,99.99
2019-03-27T02:22:19.782Z,99.99
2019-03-27T02:23:19.816Z,99.99
2019-03-27T02:24:19.831Z,99.99
2019-03-27T02:25:19.831Z,99.99
2019-03-27T02:26:34.506Z,99.99
2019-03-27T02:27:19.857Z,99.99
2019-03-27T02:28:19.878Z,99.99
2019-03-27T02:29:19.888Z,99.99
2019-03-27T02:30:19.923Z,99.99
2019-03-27T02:31:19.978Z,99.99
2019-03-27T02:32:23.283Z,99.99
2019-03-27T02:33:19.948Z,99.99
2019-03-27T02:34:19.970Z,99.99
2019-03-27T02:35:20.001Z,99.99
2019-03-27T02:36:19.995Z,99.99
2019-03-27T02:37:20.031Z,99.99
2019-03-27T02:38:20.029Z,99.99
2019-03-27T02:39:20.062Z,99.99
2019-03-27T02:40:20.062Z,99.99
2019-03-27T02:41:20.084Z,99.99
2019-03-27T02:42:34.752Z,99.99
2019-03-27T02:43:20.137Z,99.99
2019-03-27T02:44:20.122Z,99.99
2019-03-27T02:45:20.187Z,99.99
2019-03-27T02:46:27.712Z,99.99
2019-03-27T02:47:20.180Z,99.99
2019-03-27T02:48:20.177Z,99.99
2019-03-27T02:49:20.225Z,99.99
2019-03-27T02:50:20.208Z,99.99
2019-03-27T02:51:20.233Z,99.99
2019-03-27T02:52:20.235Z,99.99
2019-03-27T02:53:20.281Z,99.99
2019-03-27T02:54:20.292Z,99.99
2019-03-27T02:55:20.315Z,99.99
2019-03-27T02:56:20.366Z,99.99
2019-03-27T02:57:20.316Z,99.99
2019-03-27T02:58:34.992Z,99.99
2019-03-27T02:59:20.346Z,99.99
2019-03-27T03:00:20.374Z,99.99
2019-03-27T03:01:20.535Z,99.99
2019-03-27T03:02:20.439Z,99.99
2019-03-27T03:03:20.403Z,99.99
2019-03-27T03:04:20.415Z,99.99
2019-03-27T03:05:20.448Z,99.99
2019-03-27T03:06:20.464Z,99.99
2019-03-27T03:07:20.459Z,99.99
2019-03-27T03:08:20.495Z,99.99
2019-03-27T03:09:20.493Z,99.99
2019-03-27T03:10:20.545Z,99.99
2019-03-27T03:11:20.537Z,99.99
2019-03-27T03:12:20.557Z,99.99
2019-03-27T03:13:20.566Z,99.99
2019-03-27T03:14:35.244Z,99.99
2019-03-27T03:15:20.605Z,99.99
2019-03-27T03:16:20.598Z,99.99
2019-03-27T03:17:20.634Z,99.99
2019-03-27T03:18:20.643Z,99.99
2019-03-27T03:19:20.670Z,99.99
2019-03-27T03:20:20.657Z,99.99
2019-03-27T03:21:20.749Z,99.99
2019-03-27T03:22:20.691Z,99.99
2019-03-27T03:23:20.723Z,99.99
2019-03-27T03:24:20.727Z,99.99
2019-03-27T03:26:20.767Z,99.99
2019-03-27T03:27:20.768Z,99.99
2019-03-27T03:28:20.800Z,99.99
2019-03-27T03:29:35.461Z,99.99
2019-03-27T03:30:20.832Z,99.99
2019-03-27T03:31:20.829Z,99.99
2019-03-27T03:32:21.072Z,99.99
2019-03-27T03:33:20.900Z,99.99
2019-03-27T03:34:20.889Z,99.99
2019-03-27T03:35:20.919Z,99.99
2019-03-27T03:36:20.943Z,99.99
2019-03-27T03:37:20.925Z,99.99
2019-03-27T03:39:21.014Z,99.99
2019-03-27T03:40:20.968Z,99.99
2019-03-27T03:41:20.980Z,99.99
2019-03-27T03:42:20.754Z,99.99
2019-03-27T03:43:21.031Z,99.99
2019-03-27T03:44:21.029Z,99.99
2019-03-27T03:46:21.073Z,99.99
2019-03-27T03:48:21.084Z,99.99
2019-03-27T03:49:21.098Z,99.99
2019-03-27T03:50:21.131Z,99.99
2019-03-27T03:51:21.145Z,99.99
2019-03-27T03:52:21.175Z,99.99
2019-03-27T03:53:21.163Z,99.99
2019-03-27T03:54:21.288Z,99.99
2019-03-27T03:55:21.193Z,99.99
2019-03-27T03:56:21.230Z,99.99
2019-03-27T03:57:21.225Z,99.99
2019-03-27T03:58:21.265Z,99.99
2019-03-27T03:59:21.254Z,99.99
2019-03-27T04:00:21.409Z,99.99
2019-03-27T04:01:35.947Z,99.99
2019-03-27T04:02:21.062Z,99.99
2019-03-27T04:03:21.316Z,99.99
2019-03-27T04:04:21.345Z,99.99
2019-03-27T04:05:21.347Z,99.99
2019-03-27T04:06:21.365Z,99.99
2019-03-27T04:07:21.398Z,99.99
2019-03-27T04:08:21.436Z,99.99
2019-03-27T04:09:21.426Z,99.99
2019-03-27T04:10:21.420Z,99.99
2019-03-27T04:11:21.451Z,99.99
2019-03-27T04:12:21.465Z,99.99
2019-03-27T04:13:21.470Z,99.99
2019-03-27T04:14:21.494Z,99.99
2019-03-27T04:15:21.509Z,99.99
2019-03-27T04:16:21.535Z,99.99
2019-03-27T04:17:36.204Z,99.99
2019-03-27T04:18:21.568Z,99.99
2019-03-27T04:19:21.577Z,99.99
2019-03-27T04:20:21.574Z,99.99
2019-03-27T04:21:21.722Z,99.99
2019-03-27T04:22:21.612Z,99.99
2019-03-27T04:23:21.637Z,99.99
2019-03-27T04:24:21.638Z,99.99
2019-03-27T04:25:21.671Z,99.99
2019-03-27T04:26:21.684Z,99.99
2019-03-27T04:27:21.749Z,99.99
2019-03-27T04:28:21.753Z,99.99
2019-03-27T04:29:21.736Z,99.99
2019-03-27T04:31:21.767Z,99.99
2019-03-27T04:32:21.783Z,99.99
2019-03-27T04:33:36.448Z,99.99
2019-03-27T04:34:21.793Z,99.99
2019-03-27T04:35:21.840Z,99.99
2019-03-27T04:36:21.824Z,99.99
2019-03-27T04:37:21.857Z,99.99
2019-03-27T04:38:21.853Z,99.99
2019-03-27T04:39:21.890Z,99.99
2019-03-27T04:40:21.902Z,99.99
2019-03-27T04:41:21.905Z,99.99
2019-03-27T04:42:21.917Z,99.99
2019-03-27T04:43:21.933Z,99.99
2019-03-27T04:44:21.963Z,99.99
2019-03-27T04:45:21.968Z,99.99
2019-03-27T04:46:21.997Z,99.99
2019-03-27T04:47:34.334Z,99.99
2019-03-27T04:48:22.025Z,99.99
2019-03-27T04:49:36.686Z,99.99
2019-03-27T04:50:22.042Z,99.99
2019-03-27T04:51:22.068Z,99.99
2019-03-27T04:52:22.087Z,99.99
2019-03-27T04:53:21.855Z,99.99
2019-03-27T04:54:22.102Z,99.99
2019-03-27T04:55:22.235Z,99.99
2019-03-27T04:56:22.136Z,99.99
2019-03-27T04:57:22.164Z,99.99
2019-03-27T04:58:22.172Z,99.99
2019-03-27T04:59:22.177Z,99.99
2019-03-27T05:00:22.194Z,99.99
2019-03-27T05:01:22.228Z,99.99
2019-03-27T05:02:22.237Z,99.99
2019-03-27T05:03:22.354Z,99.99
2019-03-27T05:04:36.924Z,99.99
2019-03-27T05:05:22.042Z,99.99
2019-03-27T05:06:22.390Z,99.99
2019-03-27T05:07:22.309Z,99.99
2019-03-27T05:08:22.332Z,99.99
2019-03-27T05:09:22.357Z,99.99
2019-03-27T05:10:22.370Z,99.99
2019-03-27T05:11:22.365Z,99.99
2019-03-27T05:12:22.397Z,99.99
2019-03-27T05:13:22.420Z,99.99
2019-03-27T05:14:22.430Z,99.99
2019-03-27T05:15:22.432Z,99.99
2019-03-27T05:16:22.463Z,99.99
2019-03-27T05:17:22.462Z,99.99
2019-03-27T05:18:22.495Z,99.99
2019-03-27T05:19:22.492Z,99.99
2019-03-27T05:20:22.512Z,99.99
2019-03-27T05:21:22.597Z,99.99
2019-03-27T05:22:22.563Z,99.99
2019-03-27T05:23:22.555Z,99.99
2019-03-27T05:24:22.588Z,99.99
2019-03-27T05:25:22.593Z,99.99
2019-03-27T05:26:22.622Z,99.99
2019-03-27T05:27:22.618Z,99.99
2019-03-27T05:28:22.651Z,99.99
2019-03-27T05:30:22.667Z,99.99
2019-03-27T05:31:22.716Z,99.99
2019-03-27T05:32:22.701Z,99.99
2019-03-27T05:33:22.734Z,99.99
2019-03-27T05:34:22.732Z,99.99
2019-03-27T05:35:22.764Z,99.99
2019-03-27T05:36:37.422Z,99.99
2019-03-27T05:37:22.776Z,99.99
2019-03-27T05:38:22.814Z,99.99
2019-03-27T05:39:22.824Z,99.99
2019-03-27T05:40:22.843Z,99.99
2019-03-27T05:41:22.855Z,99.99
2019-03-27T05:42:22.877Z,99.99
2019-03-27T05:43:22.873Z,99.99
2019-03-27T05:44:22.905Z,99.99
2019-03-27T05:45:22.903Z,99.99
2019-03-27T05:46:22.966Z,99.99
2019-03-27T05:47:22.958Z,99.99
2019-03-27T05:48:22.969Z,99.99
2019-03-27T05:50:23.000Z,99.99
2019-03-27T05:51:22.997Z,99.99
2019-03-27T05:52:37.680Z,99.99
2019-03-27T05:53:23.033Z,99.99
2019-03-27T05:54:23.055Z,99.99
2019-03-27T05:55:26.275Z,99.99
2019-03-27T05:56:23.077Z,99.99
2019-03-27T05:57:23.114Z,99.99
2019-03-27T05:58:23.110Z,99.99
2019-03-27T05:59:23.141Z,99.99
2019-03-27T06:00:23.143Z,99.99
2019-03-27T06:01:23.156Z,99.99
2019-03-27T06:02:23.191Z,99.99
2019-03-27T06:03:23.192Z,99.99
2019-03-27T06:05:23.238Z,99.99
2019-03-27T06:06:23.259Z,99.99
2019-03-27T06:07:23.250Z,99.99
2019-03-27T06:08:37.931Z,99.99
2019-03-27T06:09:23.300Z,99.99
2019-03-27T06:10:23.325Z,99.99
2019-03-27T06:11:23.340Z,99.99
2019-03-27T06:12:23.335Z,99.99
2019-03-27T06:13:23.366Z,99.99
2019-03-27T06:14:23.363Z,99.99
2019-03-27T06:15:23.382Z,99.99
2019-03-27T06:16:23.407Z,99.99
2019-03-27T06:17:23.436Z,99.99
2019-03-27T06:18:23.436Z,99.99
2019-03-27T06:19:23.463Z,99.99
2019-03-27T06:20:23.505Z,99.99
2019-03-27T06:21:23.492Z,99.99
2019-03-27T06:22:23.493Z,99.99
2019-03-27T06:23:23.529Z,99.99
2019-03-27T06:24:38.187Z,99.99
2019-03-27T06:25:23.543Z,99.99
2019-03-27T06:26:23.574Z,99.99
2019-03-27T06:27:23.576Z,99.99
2019-03-27T06:28:23.603Z,99.99
2019-03-27T06:29:23.606Z,99.99
2019-03-27T06:30:23.640Z,99.99
2019-03-27T06:31:23.634Z,99.99
2019-03-27T06:32:23.669Z,99.99
2019-03-27T06:33:23.669Z,99.99
2019-03-27T06:34:23.706Z,99.99
2019-03-27T06:35:23.783Z,99.99
2019-03-27T06:36:23.733Z,99.99
2019-03-27T06:37:23.734Z,99.99
2019-03-27T06:38:23.753Z,99.99
2019-03-27T06:39:38.440Z,99.99
2019-03-27T06:40:23.544Z,99.99
2019-03-27T06:41:23.919Z,99.99
2019-03-27T06:42:23.812Z,99.99
2019-03-27T06:43:23.846Z,99.99
2019-03-27T06:44:23.850Z,99.99
2019-03-27T06:45:23.862Z,99.99
2019-03-27T06:46:23.895Z,99.99
2019-03-27T06:47:23.894Z,99.99
2019-03-27T06:48:28.994Z,99.99
2019-03-27T06:49:23.940Z,99.99
2019-03-27T06:50:23.959Z,99.99
2019-03-27T06:51:39.372Z,99.99
2019-03-27T06:52:23.976Z,99.99
2019-03-27T06:53:24.008Z,99.99
2019-03-27T06:54:24.007Z,99.99
2019-03-27T06:55:24.044Z,99.99
2019-03-27T06:56:24.041Z,99.99
2019-03-27T06:57:24.069Z,99.99
2019-03-27T06:58:24.097Z,99.99
2019-03-27T06:59:24.091Z,99.99
2019-03-27T07:00:24.126Z,99.99
2019-03-27T07:01:24.139Z,99.99
2019-03-27T07:02:24.145Z,99.99
2019-03-27T07:03:24.157Z,99.99
2019-03-27T07:04:24.171Z,99.99
2019-03-27T07:05:24.205Z,99.99
2019-03-27T07:08:24.259Z,99.99
2019-03-27T07:09:24.261Z,99.99
2019-03-27T07:10:24.273Z,99.99
2019-03-27T07:11:38.954Z,99.99
2019-03-27T07:12:24.309Z,99.99
2019-03-27T07:13:24.342Z,99.99
2019-03-27T07:15:24.352Z,99.99
2019-03-27T07:16:24.389Z,99.99
2019-03-27T07:17:24.403Z,99.99
2019-03-27T07:18:24.433Z,99.99
2019-03-27T07:19:24.423Z,99.99
2019-03-27T07:20:24.210Z,99.99
2019-03-27T07:21:24.452Z,99.99
2019-03-27T07:22:24.474Z,99.99
2019-03-27T07:23:24.503Z,99.99
2019-03-27T07:24:24.525Z,99.99
2019-03-27T07:25:24.538Z,99.99
2019-03-27T07:26:24.545Z,99.99
2019-03-27T07:27:39.221Z,99.99
2019-03-27T07:28:24.573Z,99.99
2019-03-27T07:29:24.592Z,99.99
2019-03-27T07:30:24.604Z,99.99
2019-03-27T07:31:24.638Z,99.99
2019-03-27T07:32:24.656Z,99.99
2019-03-27T07:33:24.656Z,99.99
2019-03-27T07:34:24.694Z,99.99
2019-03-27T07:35:24.687Z,99.99
2019-03-27T07:36:24.706Z,99.99
2019-03-27T07:37:24.738Z,99.99
2019-03-27T07:38:24.745Z,99.99
2019-03-27T07:40:24.787Z,99.99
2019-03-27T07:41:24.842Z,99.99
2019-03-27T07:42:24.823Z,99.99
2019-03-27T07:43:39.490Z,99.99
2019-03-27T07:44:24.844Z,99.99
2019-03-27T07:45:24.873Z,99.99
2019-03-27T07:46:24.874Z,99.99
2019-03-27T07:47:24.916Z,99.99
2019-03-27T07:48:24.913Z,99.99
2019-03-27T07:49:24.943Z,99.99
2019-03-27T07:50:24.961Z,99.99
2019-03-27T07:51:24.976Z,99.99
2019-03-27T07:52:24.980Z,99.55
2019-03-27T07:53:25.162Z,98.98
2019-03-27T07:54:25.027Z,99.55
2019-03-27T07:55:25.036Z,97.84
2019-03-27T07:56:25.065Z,97.74
2019-03-27T07:57:24.823Z,97.93
2019-03-27T07:58:25.103Z,97.84
2019-03-27T07:59:39.766Z,97.74
2019-03-27T08:00:25.119Z,97.89
2019-03-27T08:01:25.149Z,97.31
2019-03-27T08:02:25.169Z,97.03
2019-03-27T08:03:25.189Z,96.36
2019-03-27T08:04:25.191Z,96.08
2019-03-27T08:05:25.235Z,95.41
2019-03-27T08:06:25.223Z,95.6
2019-03-27T08:07:29.593Z,95.03
2019-03-27T08:08:25.278Z,95.22
2019-03-27T08:10:25.295Z,94.74
2019-03-27T08:11:25.541Z,94.17
2019-03-27T08:13:25.366Z,94.74
2019-03-27T08:14:40.036Z,94.08
2019-03-27T08:15:25.394Z,94.32
2019-03-27T08:16:25.404Z,94.6
2019-03-27T08:17:25.421Z,93.27
2019-03-27T08:18:25.460Z,92.74
2019-03-27T08:19:25.461Z,93.13
2019-03-27T08:20:25.503Z,93.22
2019-03-27T08:21:25.492Z,93.51
2019-03-27T08:22:25.529Z,94.08
2019-03-27T08:23:25.529Z,94.56
2019-03-27T08:24:25.575Z,94.56
2019-03-27T08:25:25.566Z,94.27
2019-03-27T08:26:25.606Z,92.55
2019-03-27T08:27:25.620Z,92.65
2019-03-27T08:28:25.622Z,92.46
2019-03-27T08:29:25.652Z,92.84
2019-03-27T08:30:25.663Z,92.03
2019-03-27T08:31:25.691Z,91.94
2019-03-27T08:32:25.692Z,91.17
2019-03-27T08:33:25.733Z,90.98
2019-03-27T08:34:25.754Z,90.41
2019-03-27T08:36:25.784Z,91.08
2019-03-27T08:37:25.800Z,89.46
2019-03-27T08:38:25.884Z,89.75
2019-03-27T08:39:25.855Z,89.84
2019-03-27T08:40:25.840Z,89.84
2019-03-27T08:41:25.875Z,89.84
2019-03-27T08:42:25.876Z,89.94
2019-03-27T08:43:28.046Z,89.75
2019-03-27T08:44:25.925Z,89.55
2019-03-27T08:46:40.617Z,89.75
2019-03-27T08:47:25.973Z,89.84
2019-03-27T08:48:25.987Z,89.94
2019-03-27T08:49:26.027Z,90.41
2019-03-27T08:50:26.024Z,89.84
2019-03-27T08:51:26.049Z,90.22
2019-03-27T08:53:26.084Z,90.65
2019-03-27T08:54:26.116Z,92.27
2019-03-27T08:55:26.117Z,92.74
2019-03-27T08:56:26.154Z,91.99
2019-03-27T08:57:26.152Z,91.51
2019-03-27T08:58:26.175Z,91.99
2019-03-27T08:59:26.202Z,91.6
2019-03-27T09:00:26.214Z,91.7
2019-03-27T09:01:26.226Z,92.46
2019-03-27T09:02:40.913Z,92.79
2019-03-27T09:03:26.264Z,92.5
2019-03-27T09:04:26.301Z,92.36
2019-03-27T09:05:26.312Z,92.46
2019-03-27T09:06:36.106Z,92.27
2019-03-27T09:07:26.348Z,93.03
2019-03-27T09:08:26.356Z,92.36
2019-03-27T09:09:26.389Z,92.36
2019-03-27T09:10:26.393Z,92.55
2019-03-27T09:11:26.429Z,92.36
2019-03-27T09:12:26.547Z,92.22
2019-03-27T09:13:26.465Z,92.18
2019-03-27T09:16:26.518Z,92.55
2019-03-27T09:17:26.522Z,92.94
2019-03-27T09:18:41.205Z,93.13
2019-03-27T09:19:37.375Z,93.93
2019-03-27T09:20:26.582Z,93.55
2019-03-27T09:21:26.610Z,92.03
2019-03-27T09:22:26.610Z,91.65
2019-03-27T09:23:26.647Z,90.98
2019-03-27T09:24:26.648Z,92.22
2019-03-27T09:25:26.684Z,92.55
2019-03-27T09:26:26.707Z,92.65
2019-03-27T09:27:26.727Z,92.98
2019-03-27T09:28:26.474Z,92.6
2019-03-27T09:29:26.759Z,91.84
2019-03-27T09:30:26.759Z,92.41
2019-03-27T09:31:26.788Z,91.84
2019-03-27T09:32:26.796Z,91.27
2019-03-27T09:33:26.830Z,91.22
2019-03-27T09:34:41.495Z,90.74
2019-03-27T09:35:26.870Z,90.89
2019-03-27T09:36:26.891Z,90.98
2019-03-27T09:37:26.897Z,91.17
2019-03-27T09:38:26.907Z,90.79
2019-03-27T09:39:27.030Z,91.27
2019-03-27T09:40:26.966Z,90.55
2019-03-27T09:41:26.967Z,90.08
2019-03-27T09:42:27.042Z,90.17
2019-03-27T09:43:27.000Z,89.6
2019-03-27T09:44:27.040Z,89.69
2019-03-27T09:45:27.036Z,89.4
2019-03-27T09:46:27.061Z,89.98
2019-03-27T09:47:27.092Z,89.98
2019-03-27T09:48:27.123Z,89.79
2019-03-27T09:49:49.196Z,89.93
2019-03-27T09:50:27.133Z,89.07
2019-03-27T09:51:27.183Z,88.31
2019-03-27T09:52:27.247Z,88.98
2019-03-27T09:53:27.195Z,87.93
2019-03-27T09:54:27.235Z,88.12
2019-03-27T09:55:27.239Z,88.55
2019-03-27T09:56:27.244Z,89.5
2019-03-27T09:57:27.297Z,88.64
2019-03-27T09:58:27.282Z,89.6
2019-03-27T09:59:27.321Z,89.03
2019-03-27T10:00:27.340Z,88.84
2019-03-27T10:01:27.346Z,89.31
2019-03-27T10:02:27.371Z,89.69
2019-03-27T10:03:27.378Z,89.6
2019-03-27T10:05:27.416Z,89.4
2019-03-27T10:06:27.452Z,88.84
2019-03-27T10:07:27.495Z,88.93
2019-03-27T10:08:27.493Z,88.55
2019-03-27T10:09:27.526Z,88.64
2019-03-27T10:10:27.527Z,89.4
2019-03-27T10:11:27.544Z,89.65
2019-03-27T10:12:27.560Z,89.94
2019-03-27T10:13:27.584Z,90.93
2019-03-27T10:14:27.598Z,90.08
2019-03-27T10:15:27.617Z,89.98
2019-03-27T10:16:27.637Z,89.79
2019-03-27T10:17:27.656Z,90.22
2019-03-27T10:18:27.683Z,90.31
2019-03-27T10:19:27.692Z,90.22
2019-03-27T10:20:27.710Z,90.5
2019-03-27T10:21:42.384Z,90.12
2019-03-27T10:22:27.749Z,90.89
2019-03-27T10:23:27.516Z,91.36
2019-03-27T10:24:27.793Z,90.98
2019-03-27T10:26:27.576Z,91.17
2019-03-27T10:27:27.842Z,91.22
2019-03-27T10:28:27.883Z,90.26
2019-03-27T10:29:27.979Z,89.5
2019-03-27T10:30:27.899Z,89.98
2019-03-27T10:31:27.916Z,90.08
2019-03-27T10:32:27.934Z,90.55
2019-03-27T10:33:27.955Z,89.79
2019-03-27T10:34:27.996Z,89.89
2019-03-27T10:35:27.995Z,89.89
2019-03-27T10:36:28.013Z,89.03
2019-03-27T10:37:42.684Z,89.6
2019-03-27T10:38:28.049Z,88.64
2019-03-27T10:39:28.115Z,88.93
2019-03-27T10:40:28.186Z,90.08
2019-03-27T10:43:28.141Z,90.5
2019-03-27T10:44:28.163Z,90.5
2019-03-27T10:45:28.183Z,90.45
2019-03-27T10:46:28.201Z,90.45
2019-03-27T10:47:28.220Z,89.5
2019-03-27T10:48:28.336Z,90.08
2019-03-27T10:49:28.255Z,90.08
2019-03-27T10:50:28.274Z,89.5
2019-03-27T10:51:28.293Z,88.93
2019-03-27T10:53:42.985Z,88.74
2019-03-27T10:55:28.463Z,88.36
2019-03-27T10:57:28.407Z,87.93
2019-03-27T10:58:28.475Z,88.12
2019-03-27T10:59:28.452Z,87.64
2019-03-27T11:00:28.464Z,87.83
2019-03-27T11:01:28.482Z,88.5
2019-03-27T11:02:28.508Z,87.35
2019-03-27T11:03:28.539Z,87.64
2019-03-27T11:04:28.540Z,88.45
2019-03-27T11:05:28.560Z,88.26
2019-03-27T11:06:28.580Z,88.93
2019-03-27T11:07:28.600Z,89.5
2019-03-27T11:08:28.615Z,89.6
2019-03-27T11:09:43.290Z,88.88
2019-03-27T11:10:28.655Z,88.98
2019-03-27T11:13:28.712Z,89.31
2019-03-27T11:14:39.935Z,88.64
2019-03-27T11:15:28.749Z,88.74
2019-03-27T11:16:28.811Z,88.64
2019-03-27T11:17:28.788Z,89.6
2019-03-27T11:18:28.557Z,88.64
2019-03-27T11:19:28.825Z,89.89
2019-03-27T11:20:33.904Z,89.03
2019-03-27T11:21:28.873Z,88.93
2019-03-27T11:22:28.883Z,87.69
2019-03-27T11:23:28.905Z,88.93
2019-03-27T11:24:43.577Z,89.12
2019-03-27T11:25:28.946Z,88.69
2019-03-27T11:26:28.979Z,87.21
2019-03-27T11:27:28.981Z,88.64
2019-03-27T11:28:29.014Z,87.93
2019-03-27T11:29:29.024Z,88.21
2019-03-27T11:30:29.041Z,87.54
2019-03-27T11:31:29.059Z,87.07
2019-03-27T11:32:29.080Z,86.88
2019-03-27T11:33:31.402Z,87.26
2019-03-27T11:34:29.135Z,86.98
2019-03-27T11:35:29.131Z,86.78
2019-03-27T11:36:29.151Z,86.49
2019-03-27T11:37:29.169Z,87.26
2019-03-27T11:38:29.190Z,86.98
2019-03-27T11:39:29.209Z,87.64
2019-03-27T11:40:29.231Z,87.16
2019-03-27T11:41:29.245Z,87.79
2019-03-27T11:42:29.280Z,88.98
2019-03-27T11:43:29.290Z,88.78
2019-03-27T11:45:29.322Z,88.45
2019-03-27T11:46:32.029Z,88.88
2019-03-27T11:47:29.361Z,88.31
2019-03-27T11:48:29.379Z,88.31
2019-03-27T11:49:29.399Z,88.02
2019-03-27T11:50:29.422Z,87.93
2019-03-27T11:51:29.439Z,88.21
2019-03-27T11:52:32.179Z,87.35
2019-03-27T11:53:29.475Z,86.98
2019-03-27T11:54:29.498Z,87.93
2019-03-27T11:55:29.530Z,86.98
2019-03-27T11:56:44.188Z,86.69
2019-03-27T11:57:29.554Z,86.82
2019-03-27T11:58:29.572Z,86.4
2019-03-27T12:00:29.616Z,86.16
2019-03-27T12:02:29.652Z,85.77
2019-03-27T12:03:29.669Z,85.97
2019-03-27T12:04:29.687Z,85.01
2019-03-27T12:05:29.715Z,85.39
2019-03-27T12:06:29.734Z,86.11
2019-03-27T12:07:29.748Z,86.3
2019-03-27T12:08:29.767Z,86.11
2019-03-27T12:09:29.788Z,86.59
2019-03-27T12:10:29.809Z,86.98
2019-03-27T12:11:29.830Z,87.16
2019-03-27T12:12:44.501Z,87.07
2019-03-27T12:13:29.868Z,86.25
2019-03-27T12:14:29.884Z,85.58
2019-03-27T12:16:29.922Z,85.39
2019-03-27T12:17:29.940Z,84.44
2019-03-27T12:18:31.943Z,84.48
2019-03-27T12:19:29.984Z,84
2019-03-27T12:20:30.004Z,83.53
2019-03-27T12:21:30.021Z,83.14
2019-03-27T12:22:30.038Z,82.86
2019-03-27T12:23:30.059Z,83.05
2019-03-27T12:24:31.235Z,83.14
2019-03-27T12:25:30.098Z,83.34
2019-03-27T12:26:30.121Z,83.91
2019-03-27T12:27:30.143Z,84.1
2019-03-27T12:28:44.813Z,84.16
2019-03-27T12:29:30.229Z,84.72
2019-03-27T12:30:30.199Z,85.77
2019-03-27T12:31:30.218Z,85.77
2019-03-27T12:32:30.244Z,85.49
2019-03-27T12:33:30.264Z,86.16
2019-03-27T12:34:30.319Z,86.06
2019-03-27T12:35:30.297Z,86.78
2019-03-27T12:36:30.315Z,87.83
2019-03-27T12:37:30.339Z,86.78
2019-03-27T12:38:30.359Z,87.02
2019-03-27T12:39:30.373Z,86.73
2019-03-27T12:40:30.398Z,86.82
2019-03-27T12:41:32.852Z,87.11
2019-03-27T12:42:30.432Z,86.92
2019-03-27T12:43:30.458Z,87.02
2019-03-27T12:44:45.125Z,86.98
2019-03-27T12:45:30.490Z,87.93
2019-03-27T12:46:30.514Z,87.54
2019-03-27T12:47:30.527Z,87.54
2019-03-27T12:49:30.574Z,87.45
2019-03-27T12:50:30.588Z,86.98
2019-03-27T12:51:30.614Z,87.93
2019-03-27T12:52:30.635Z,87.93
2019-03-27T12:53:30.648Z,88.21
2019-03-27T12:54:30.681Z,87.74
2019-03-27T12:55:30.683Z,87.64
2019-03-27T12:56:30.706Z,87.26
2019-03-27T12:57:30.725Z,87.93
2019-03-27T12:58:30.742Z,88.59
2019-03-27T12:59:45.416Z,88.4
2019-03-27T13:00:30.782Z,88.5
2019-03-27T13:01:30.802Z,88.78
2019-03-27T13:03:30.840Z,88.78
2019-03-27T13:04:30.859Z,89.17
2019-03-27T13:05:30.882Z,88.88
2019-03-27T13:06:30.906Z,87.93
2019-03-27T13:07:30.923Z,88.21
2019-03-27T13:08:30.934Z,87.83
2019-03-27T13:09:30.954Z,88.02
2019-03-27T13:10:31.005Z,87.83
2019-03-27T13:12:31.014Z,88.78
2019-03-27T13:13:31.036Z,88.88
2019-03-27T13:14:31.038Z,88.88
2019-03-27T13:15:31.057Z,89.17
2019-03-27T13:16:31.093Z,88.88
2019-03-27T13:17:34.062Z,88.88
2019-03-27T13:18:31.133Z,88.98
2019-03-27T13:19:31.137Z,88.78
2019-03-27T13:20:31.167Z,89.07
2019-03-27T13:21:31.189Z,88.59
2019-03-27T13:22:31.212Z,88.88
2019-03-27T13:23:31.210Z,88.78
2019-03-27T13:24:31.253Z,88.31
2019-03-27T13:25:31.266Z,88.31
2019-03-27T13:27:31.300Z,89.54
2019-03-27T13:28:31.308Z,89.83
2019-03-27T13:29:31.351Z,90.03
2019-03-27T13:30:31.344Z,90.12
2019-03-27T13:31:46.032Z,90.41
2019-03-27T13:32:31.402Z,90.31
2019-03-27T13:33:31.407Z,90.03